sensor_id;sensor_type;location;lat;lon;timestamp;pressure;altitude;pressure_sealevel;temperature;humidity
40490;BME280;26196;52.302;10.572;2023-03-12T00:00:32;100251.25;;;8.94;53.44
40490;BME280;26196;52.302;10.572;2023-03-12T00:04:33;100253.81;;;8.95;53.44
40490;BME280;26196;52.302;10.572;2023-03-12T00:08:35;100252.06;;;8.96;53.28
40490;BME280;26196;52.302;10.572;2023-03-12T00:12:35;100259.03;;;8.95;52.93
40490;BME280;26196;52.302;10.572;2023-03-12T00:16:36;100251.25;;;8.94;53.01
40490;BME280;26196;52.302;10.572;2023-03-12T00:20:36;100250.38;;;8.93;52.95
40490;BME280;26196;52.302;10.572;2023-03-12T00:24:36;100250.31;;;8.96;53.05
40490;BME280;26196;52.302;10.572;2023-03-12T00:28:37;100254.75;;;8.93;53.31
40490;BME280;26196;52.302;10.572;2023-03-12T00:32:38;100256.41;;;8.97;53.43
40490;BME280;26196;52.302;10.572;2023-03-12T00:36:38;100263.50;;;8.92;53.55
40490;BME280;26196;52.302;10.572;2023-03-12T00:40:40;100254.66;;;8.96;53.00
40490;BME280;26196;52.302;10.572;2023-03-12T00:44:41;100259.91;;;8.96;52.91
40490;BME280;26196;52.302;10.572;2023-03-12T00:48:42;100259.03;;;8.95;53.13
40490;BME280;26196;52.302;10.572;2023-03-12T00:52:43;100256.41;;;8.97;52.79
40490;BME280;26196;52.302;10.572;2023-03-12T00:56:43;100256.41;;;8.97;52.63
40490;BME280;26196;52.302;10.572;2023-03-12T01:00:45;100255.59;;;8.95;52.94
40490;BME280;26196;52.302;10.572;2023-03-12T01:04:46;100246.81;;;8.97;52.95
40490;BME280;26196;52.302;10.572;2023-03-12T01:08:46;100242.47;;;8.96;52.75
40490;BME280;26196;52.302;10.572;2023-03-12T01:12:46;100245.03;;;9.00;53.04
40490;BME280;26196;52.302;10.572;2023-03-12T01:16:47;100246.75;;;9.01;52.33
40490;BME280;26196;52.302;10.572;2023-03-12T01:20:47;100237.22;;;8.98;52.74
40490;BME280;26196;52.302;10.572;2023-03-12T01:24:47;100241.69;;;8.94;52.59
40490;BME280;26196;52.302;10.572;2023-03-12T01:28:48;100243.41;;;8.94;52.64
40490;BME280;26196;52.302;10.572;2023-03-12T01:32:51;100232.16;;;8.92;52.87
40490;BME280;26196;52.302;10.572;2023-03-12T01:36:51;100239.09;;;8.93;52.52
40490;BME280;26196;52.302;10.572;2023-03-12T01:40:51;100239.13;;;8.91;53.08
40490;BME280;26196;52.302;10.572;2023-03-12T01:44:55;100246.00;;;8.94;52.81
40490;BME280;26196;52.302;10.572;2023-03-12T01:49:00;100239.91;;;8.95;52.22
40490;BME280;26196;52.302;10.572;2023-03-12T01:53:02;100244.22;;;8.97;52.38
40490;BME280;26196;52.302;10.572;2023-03-12T01:57:04;100250.25;;;9.00;51.56
40490;BME280;26196;52.302;10.572;2023-03-12T02:01:05;100247.75;;;8.95;51.78
40490;BME280;26196;52.302;10.572;2023-03-12T02:05:35;100248.53;;;8.98;51.80
40490;BME280;26196;52.302;10.572;2023-03-12T02:09:42;100249.31;;;9.02;51.36
40490;BME280;26196;52.302;10.572;2023-03-12T02:13:44;100241.50;;;9.01;51.28
40490;BME280;26196;52.302;10.572;2023-03-12T02:17:44;100241.50;;;9.01;51.49
40490;BME280;26196;52.302;10.572;2023-03-12T02:21:45;100247.59;;;9.01;51.04
40490;BME280;26196;52.302;10.572;2023-03-12T02:25:48;100238.91;;;9.01;50.92
40490;BME280;26196;52.302;10.572;2023-03-12T02:29:49;100244.09;;;9.02;50.26
40490;BME280;26196;52.302;10.572;2023-03-12T02:33:50;100256.28;;;9.02;51.12
40490;BME280;26196;52.302;10.572;2023-03-12T02:37:54;100254.53;;;9.02;51.12
40490;BME280;26196;52.302;10.572;2023-03-12T02:41:56;100251.97;;;9.01;50.65
40490;BME280;26196;52.302;10.572;2023-03-12T02:45:58;100252.81;;;9.01;50.58
40490;BME280;26196;52.302;10.572;2023-03-12T02:49:58;100245.88;;;9.00;50.28
40490;BME280;26196;52.302;10.572;2023-03-12T02:53:59;100245.97;;;8.97;50.54
40490;BME280;26196;52.302;10.572;2023-03-12T02:57:59;100257.19;;;8.99;49.73
40490;BME280;26196;52.302;10.572;2023-03-12T03:02:00;100254.59;;;8.99;49.76
40490;BME280;26196;52.302;10.572;2023-03-12T03:06:00;100253.81;;;8.95;50.26
40490;BME280;26196;52.302;10.572;2023-03-12T03:10:02;100256.31;;;9.00;50.05
40490;BME280;26196;52.302;10.572;2023-03-12T03:14:03;100255.53;;;8.96;49.78
40490;BME280;26196;52.302;10.572;2023-03-12T03:18:06;100254.66;;;8.96;49.45
40490;BME280;26196;52.302;10.572;2023-03-12T03:22:06;100255.50;;;8.98;49.60
40490;BME280;26196;52.302;10.572;2023-03-12T03:26:06;100258.19;;;8.95;49.45
40490;BME280;26196;52.302;10.572;2023-03-12T03:30:07;100258.13;;;8.96;48.82
40490;BME280;26196;52.302;10.572;2023-03-12T03:34:08;100257.38;;;8.93;49.34
40490;BME280;26196;52.302;10.572;2023-03-12T03:38:08;100253.00;;;8.93;49.87
40490;BME280;26196;52.302;10.572;2023-03-12T03:42:08;100255.53;;;8.96;48.70
40490;BME280;26196;52.302;10.572;2023-03-12T03:46:10;100265.19;;;8.93;49.13
40490;BME280;26196;52.302;10.572;2023-03-12T03:50:11;100249.72;;;8.85;50.01
40490;BME280;26196;52.302;10.572;2023-03-12T03:54:11;100260.06;;;8.90;49.62
40490;BME280;26196;52.302;10.572;2023-03-12T03:58:12;100256.63;;;8.88;49.04
40490;BME280;26196;52.302;10.572;2023-03-12T04:02:13;100261.84;;;8.88;48.78
40490;BME280;26196;52.302;10.572;2023-03-12T04:06:13;100258.47;;;8.84;48.45
40490;BME280;26196;52.302;10.572;2023-03-12T04:10:13;100260.16;;;8.85;48.05
40490;BME280;26196;52.302;10.572;2023-03-12T04:14:14;100261.00;;;8.86;48.41
40490;BME280;26196;52.302;10.572;2023-03-12T04:18:14;100258.41;;;8.86;48.23
40490;BME280;26196;52.302;10.572;2023-03-12T04:22:15;100261.16;;;8.81;48.24
40490;BME280;26196;52.302;10.572;2023-03-12T04:26:15;100258.59;;;8.78;49.16
40490;BME280;26196;52.302;10.572;2023-03-12T04:30:16;100258.59;;;8.78;48.89
40490;BME280;26196;52.302;10.572;2023-03-12T04:34:17;100256.91;;;8.75;49.66
40490;BME280;26196;52.302;10.572;2023-03-12T04:38:18;100251.75;;;8.72;48.89
40490;BME280;26196;52.302;10.572;2023-03-12T04:42:19;100249.16;;;8.72;49.34
40490;BME280;26196;52.302;10.572;2023-03-12T04:46:19;100243.16;;;8.69;49.04
40490;BME280;26196;52.302;10.572;2023-03-12T04:50:19;100249.31;;;8.66;49.32
40490;BME280;26196;52.302;10.572;2023-03-12T04:54:20;100251.09;;;8.64;49.32
40490;BME280;26196;52.302;10.572;2023-03-12T04:58:21;100252.00;;;8.63;49.10
40490;BME280;26196;52.302;10.572;2023-03-12T05:02:22;100252.03;;;8.60;49.32
40490;BME280;26196;52.302;10.572;2023-03-12T05:06:23;100253.78;;;8.61;49.37
40490;BME280;26196;52.302;10.572;2023-03-12T05:10:24;100254.78;;;8.56;49.36
40490;BME280;26196;52.302;10.572;2023-03-12T05:14:25;100261.69;;;8.58;49.05
40490;BME280;26196;52.302;10.572;2023-03-12T05:18:25;100251.28;;;8.55;49.26
40490;BME280;26196;52.302;10.572;2023-03-12T05:22:26;100261.69;;;8.57;49.39
40490;BME280;26196;52.302;10.572;2023-03-12T05:26:29;100260.84;;;8.56;48.73
40490;BME280;26196;52.302;10.572;2023-03-12T05:30:32;100259.88;;;8.60;48.35
40490;BME280;26196;52.302;10.572;2023-03-12T05:34:33;100259.91;;;8.59;48.19
40490;BME280;26196;52.302;10.572;2023-03-12T05:38:34;100264.22;;;8.61;48.57
40490;BME280;26196;52.302;10.572;2023-03-12T05:42:34;100255.47;;;8.62;48.17
40490;BME280;26196;52.302;10.572;2023-03-12T05:46:34;100246.78;;;8.63;47.87
40490;BME280;26196;52.302;10.572;2023-03-12T05:50:35;100252.94;;;8.59;48.40
40490;BME280;26196;52.302;10.572;2023-03-12T05:54:35;100252.03;;;8.60;48.14
40490;BME280;26196;52.302;10.572;2023-03-12T05:58:35;100243.41;;;8.58;48.63
40490;BME280;26196;52.302;10.572;2023-03-12T06:02:37;100244.25;;;8.59;48.78
40490;BME280;26196;52.302;10.572;2023-03-12T06:06:37;100236.47;;;8.57;48.52
40490;BME280;26196;52.302;10.572;2023-03-12T06:10:38;100235.63;;;8.57;48.10
40490;BME280;26196;52.302;10.572;2023-03-12T06:14:38;100239.94;;;8.58;48.30
40490;BME280;26196;52.302;10.572;2023-03-12T06:18:39;100236.53;;;8.54;48.32
40490;BME280;26196;52.302;10.572;2023-03-12T06:22:39;100236.53;;;8.54;48.15
40490;BME280;26196;52.302;10.572;2023-03-12T06:26:39;100233.09;;;8.52;48.57
40490;BME280;26196;52.302;10.572;2023-03-12T06:30:40;100229.69;;;8.50;48.58
40490;BME280;26196;52.302;10.572;2023-03-12T06:34:41;100238.31;;;8.52;48.13
40490;BME280;26196;52.302;10.572;2023-03-12T06:38:41;100236.69;;;8.48;48.60
40490;BME280;26196;52.302;10.572;2023-03-12T06:42:42;100221.88;;;8.50;48.55
40490;BME280;26196;52.302;10.572;2023-03-12T06:46:42;100207.09;;;8.49;48.31
40490;BME280;26196;52.302;10.572;2023-03-12T06:50:43;100214.09;;;8.47;48.41
40490;BME280;26196;52.302;10.572;2023-03-12T06:54:43;100207.16;;;8.46;48.71
40490;BME280;26196;52.302;10.572;2023-03-12T06:58:44;100201.88;;;8.49;48.09
40490;BME280;26196;52.302;10.572;2023-03-12T07:02:44;100210.56;;;8.49;48.41
40490;BME280;26196;52.302;10.572;2023-03-12T07:06:44;100208.81;;;8.50;47.76
40490;BME280;26196;52.302;10.572;2023-03-12T07:10:49;100205.41;;;8.48;47.77
40490;BME280;26196;52.302;10.572;2023-03-12T07:14:49;100208.81;;;8.50;47.96
40490;BME280;26196;52.302;10.572;2023-03-12T07:18:50;100212.31;;;8.49;48.15
40490;BME280;26196;52.302;10.572;2023-03-12T07:22:50;100220.97;;;8.51;48.13
40490;BME280;26196;52.302;10.572;2023-03-12T07:26:50;100221.81;;;8.51;47.53
40490;BME280;26196;52.302;10.572;2023-03-12T07:30:51;100211.38;;;8.51;47.71
40490;BME280;26196;52.302;10.572;2023-03-12T07:34:51;100208.78;;;8.51;48.16
40490;BME280;26196;52.302;10.572;2023-03-12T07:38:52;100209.59;;;8.53;47.94
40490;BME280;26196;52.302;10.572;2023-03-12T07:42:52;100206.09;;;8.54;47.17
40490;BME280;26196;52.302;10.572;2023-03-12T07:46:52;100207.06;;;8.50;47.41
40490;BME280;26196;52.302;10.572;2023-03-12T07:50:53;100202.63;;;8.54;47.53
40490;BME280;26196;52.302;10.572;2023-03-12T07:54:54;100198.41;;;8.50;47.88
40490;BME280;26196;52.302;10.572;2023-03-12T07:58:55;100196.50;;;8.55;48.12
40490;BME280;26196;52.302;10.572;2023-03-12T08:02:56;100196.50;;;8.55;47.91
40490;BME280;26196;52.302;10.572;2023-03-12T08:06:56;100204.38;;;8.53;47.92
40490;BME280;26196;52.302;10.572;2023-03-12T08:10:58;100197.41;;;8.54;48.24
40490;BME280;26196;52.302;10.572;2023-03-12T08:14:59;100198.16;;;8.59;47.94
40490;BME280;26196;52.302;10.572;2023-03-12T08:18:59;100202.59;;;8.56;47.73
40490;BME280;26196;52.302;10.572;2023-03-12T08:23:00;100200.78;;;8.58;47.85
40490;BME280;26196;52.302;10.572;2023-03-12T08:27:00;100201.69;;;8.58;47.99
40490;BME280;26196;52.302;10.572;2023-03-12T08:31:01;100196.38;;;8.61;47.61
40490;BME280;26196;52.302;10.572;2023-03-12T08:35:01;100188.56;;;8.61;47.60
40490;BME280;26196;52.302;10.572;2023-03-12T08:39:04;100182.47;;;8.61;48.73
40490;BME280;26196;52.302;10.572;2023-03-12T08:43:04;100171.22;;;8.59;48.44
40490;BME280;26196;52.302;10.572;2023-03-12T08:47:06;100163.34;;;8.60;48.06
40490;BME280;26196;52.302;10.572;2023-03-12T08:51:07;100152.97;;;8.57;48.03
40490;BME280;26196;52.302;10.572;2023-03-12T08:55:08;100155.50;;;8.62;47.77
40490;BME280;26196;52.302;10.572;2023-03-12T08:59:10;100145.88;;;8.64;47.69
40490;BME280;26196;52.302;10.572;2023-03-12T09:03:10;100148.47;;;8.64;47.99
40490;BME280;26196;52.302;10.572;2023-03-12T09:07:14;100159.69;;;8.67;47.40
40490;BME280;26196;52.302;10.572;2023-03-12T09:11:17;100165.00;;;8.64;47.90
40490;BME280;26196;52.302;10.572;2023-03-12T09:15:17;100167.53;;;8.67;48.14
40490;BME280;26196;52.302;10.572;2023-03-12T09:19:18;100169.19;;;8.70;47.40
40490;BME280;26196;52.302;10.572;2023-03-12T09:23:19;100170.88;;;8.72;48.15
40490;BME280;26196;52.302;10.572;2023-03-12T09:27:20;100155.22;;;8.72;48.39
40490;BME280;26196;52.302;10.572;2023-03-12T09:31:20;100149.13;;;8.73;49.08
40490;BME280;26196;52.302;10.572;2023-03-12T09:35:20;100148.13;;;8.77;48.87
40490;BME280;26196;52.302;10.572;2023-03-12T09:39:21;100146.44;;;8.76;47.82
40490;BME280;26196;52.302;10.572;2023-03-12T09:43:35;100150.75;;;8.77;48.22
40490;BME280;26196;52.302;10.572;2023-03-12T09:47:45;100142.06;;;8.77;48.34
40490;BME280;26196;52.302;10.572;2023-03-12T09:51:48;100133.28;;;8.81;48.85
40490;BME280;26196;52.302;10.572;2023-03-12T09:55:52;100140.13;;;8.84;49.17
40490;BME280;26196;52.302;10.572;2023-03-12T09:59:54;100130.66;;;8.81;48.88
40490;BME280;26196;52.302;10.572;2023-03-12T10:21:54;100086.06;;;8.89;49.39
40490;BME280;26196;52.302;10.572;2023-03-12T10:26:15;100080.00;;;8.88;49.91
40490;BME280;26196;52.302;10.572;2023-03-12T10:30:23;100083.50;;;8.87;48.73
40490;BME280;26196;52.302;10.572;2023-03-12T10:34:36;100071.41;;;8.85;49.00
40490;BME280;26196;52.302;10.572;2023-03-12T10:38:39;100068.78;;;8.85;49.27
40490;BME280;26196;52.302;10.572;2023-03-12T10:42:39;100071.44;;;8.83;48.86
40490;BME280;26196;52.302;10.572;2023-03-12T10:51:05;100073.16;;;8.84;50.06
40490;BME280;26196;52.302;10.572;2023-03-12T10:55:21;100059.19;;;8.85;49.72
40490;BME280;26196;52.302;10.572;2023-03-12T10:59:27;100049.59;;;8.86;48.80
40490;BME280;26196;52.302;10.572;2023-03-12T11:03:28;100020.09;;;8.84;49.40
40490;BME280;26196;52.302;10.572;2023-03-12T11:07:34;100025.31;;;8.84;49.67
40490;BME280;26196;52.302;10.572;2023-03-12T11:11:35;100026.13;;;8.86;50.01
40490;BME280;26196;52.302;10.572;2023-03-12T11:15:39;100012.22;;;8.85;49.54
40490;BME280;26196;52.302;10.572;2023-03-12T11:19:40;100004.38;;;8.87;49.27
40490;BME280;26196;52.302;10.572;2023-03-12T11:23:43;100013.88;;;8.88;50.30
40490;BME280;26196;52.302;10.572;2023-03-12T11:27:48;100012.84;;;8.93;49.93
40490;BME280;26196;52.302;10.572;2023-03-12T11:32:00;100004.19;;;8.93;49.60
40490;BME280;26196;52.302;10.572;2023-03-12T11:57:59;99968.78;;;9.12;50.88
40490;BME280;26196;52.302;10.572;2023-03-12T12:02:39;99961.03;;;9.11;50.92
40490;BME280;26196;52.302;10.572;2023-03-12T12:06:55;99956.75;;;9.08;50.58
40490;BME280;26196;52.302;10.572;2023-03-12T12:11:50;99941.22;;;9.04;49.43
40490;BME280;26196;52.302;10.572;2023-03-12T12:15:41;99937.00;;;9.00;50.27
40490;BME280;26196;52.302;10.572;2023-03-12T12:19:58;99932.63;;;9.00;50.25
40490;BME280;26196;52.302;10.572;2023-03-12T12:33:30;99897.78;;;9.01;50.40
40490;BME280;26196;52.302;10.572;2023-03-12T12:37:44;99890.72;;;9.05;51.08
40490;BME280;26196;52.302;10.572;2023-03-12T12:41:50;99888.06;;;9.06;49.88
40490;BME280;26196;52.302;10.572;2023-03-12T12:45:55;99871.69;;;9.01;50.25
40490;BME280;26196;52.302;10.572;2023-03-12T12:49:57;99869.16;;;8.98;49.99
40490;BME280;26196;52.302;10.572;2023-03-12T13:03:04;99866.34;;;9.04;50.80
40490;BME280;26196;52.302;10.572;2023-03-12T13:15:40;99854.13;;;9.06;50.55
40490;BME280;26196;52.302;10.572;2023-03-12T13:19:44;99868.84;;;9.09;51.35
40490;BME280;26196;52.302;10.572;2023-03-12T13:23:54;99855.69;;;9.12;50.72
40490;BME280;26196;52.302;10.572;2023-03-12T13:32:37;99835.63;;;9.12;50.67
40490;BME280;26196;52.302;10.572;2023-03-12T13:36:37;99851.25;;;9.14;50.75
40490;BME280;26196;52.302;10.572;2023-03-12T13:40:54;99845.94;;;9.17;51.43
40490;BME280;26196;52.302;10.572;2023-03-12T13:45:26;99838.00;;;9.20;51.21
40490;BME280;26196;52.302;10.572;2023-03-12T13:49:44;99826.72;;;9.19;51.64
40490;BME280;26196;52.302;10.572;2023-03-12T13:53:59;99809.25;;;9.22;52.07
40490;BME280;26196;52.302;10.572;2023-03-12T13:58:39;99807.38;;;9.25;51.79
40490;BME280;26196;52.302;10.572;2023-03-12T14:16:42;99786.22;;;9.33;52.61
40490;BME280;26196;52.302;10.572;2023-03-12T14:20:54;99787.09;;;9.33;52.39
40490;BME280;26196;52.302;10.572;2023-03-12T14:48:40;99761.50;;;9.43;52.05
40490;BME280;26196;52.302;10.572;2023-03-12T14:53:19;99760.63;;;9.44;51.94
40490;BME280;26196;52.302;10.572;2023-03-12T15:02:36;99751.75;;;9.48;52.14
40490;BME280;26196;52.302;10.572;2023-03-12T15:07:11;99752.56;;;9.50;52.36
40490;BME280;26196;52.302;10.572;2023-03-12T15:11:51;99741.19;;;9.51;52.80
40490;BME280;26196;52.302;10.572;2023-03-12T15:16:26;99746.34;;;9.54;52.15
40490;BME280;26196;52.302;10.572;2023-03-12T15:21:00;99746.25;;;9.56;52.52
40490;BME280;26196;52.302;10.572;2023-03-12T15:25:34;99750.63;;;9.55;52.68
40490;BME280;26196;52.302;10.572;2023-03-12T15:30:21;99744.47;;;9.58;52.41
40490;BME280;26196;52.302;10.572;2023-03-12T15:34:46;99739.91;;;9.63;52.43
40490;BME280;26196;52.302;10.572;2023-03-12T15:43:58;99732.88;;;9.65;52.68
40490;BME280;26196;52.302;10.572;2023-03-12T15:48:37;99701.66;;;9.62;52.81
40490;BME280;26196;52.302;10.572;2023-03-12T15:57:49;99711.03;;;9.68;52.44
40490;BME280;26196;52.302;10.572;2023-03-12T16:07:05;99717.81;;;9.72;52.50
40490;BME280;26196;52.302;10.572;2023-03-12T16:16:18;99698.56;;;9.74;52.38
40490;BME280;26196;52.302;10.572;2023-03-12T16:20:18;99713.34;;;9.75;52.18
40490;BME280;26196;52.302;10.572;2023-03-12T16:24:19;99718.50;;;9.77;52.39
40490;BME280;26196;52.302;10.572;2023-03-12T16:28:56;99710.56;;;9.80;52.24
40490;BME280;26196;52.302;10.572;2023-03-12T16:33:31;99718.34;;;9.81;52.50
40490;BME280;26196;52.302;10.572;2023-03-12T16:38:06;99712.16;;;9.84;52.36
40490;BME280;26196;52.302;10.572;2023-03-12T16:42:44;99700.75;;;9.86;52.56
40490;BME280;26196;52.302;10.572;2023-03-12T16:51:57;99710.19;;;9.91;52.81
40490;BME280;26196;52.302;10.572;2023-03-12T16:55:59;99709.31;;;9.90;52.83
40490;BME280;26196;52.302;10.572;2023-03-12T17:00:34;99709.13;;;9.95;53.11
40490;BME280;26196;52.302;10.572;2023-03-12T17:05:10;99720.44;;;9.95;52.70
40490;BME280;26196;52.302;10.572;2023-03-12T17:09:45;99715.16;;;9.97;52.13
40490;BME280;26196;52.302;10.572;2023-03-12T17:13:51;99717.78;;;9.97;53.16
40490;BME280;26196;52.302;10.572;2023-03-12T17:18:20;99716.81;;;9.99;53.32
40490;BME280;26196;52.302;10.572;2023-03-12T17:22:55;99716.81;;;9.99;52.55
40490;BME280;26196;52.302;10.572;2023-03-12T17:27:32;99719.44;;;9.99;53.21
40490;BME280;26196;52.302;10.572;2023-03-12T17:36:44;99726.31;;;10.02;53.16
40490;BME280;26196;52.302;10.572;2023-03-12T17:41:21;99724.50;;;10.04;52.59
40490;BME280;26196;52.302;10.572;2023-03-12T17:45:56;99732.25;;;10.05;52.86
40490;BME280;26196;52.302;10.572;2023-03-12T17:50:33;99734.00;;;10.06;52.85
40490;BME280;26196;52.302;10.572;2023-03-12T17:54:34;99735.56;;;10.11;52.69
40490;BME280;26196;52.302;10.572;2023-03-12T17:59:09;99739.81;;;10.13;52.60
40490;BME280;26196;52.302;10.572;2023-03-12T18:03:44;99730.16;;;10.15;53.15
40490;BME280;26196;52.302;10.572;2023-03-12T18:12:58;99727.44;;;10.18;52.56
40490;BME280;26196;52.302;10.572;2023-03-12T18:17:33;99737.00;;;10.19;52.85
40490;BME280;26196;52.302;10.572;2023-03-12T18:22:10;99728.16;;;10.22;52.56
40490;BME280;26196;52.302;10.572;2023-03-12T18:26:47;99729.88;;;10.23;52.83
40490;BME280;26196;52.302;10.572;2023-03-12T18:36:01;99741.88;;;10.28;52.95
40490;BME280;26196;52.302;10.572;2023-03-12T18:40:35;99741.84;;;10.30;52.77
40490;BME280;26196;52.302;10.572;2023-03-12T18:45:12;99741.91;;;10.27;53.33
40490;BME280;26196;52.302;10.572;2023-03-12T18:49:50;99727.88;;;10.29;53.10
40490;BME280;26196;52.302;10.572;2023-03-12T18:59:02;99731.25;;;10.33;52.73
40490;BME280;26196;52.302;10.572;2023-03-12T19:03:37;99729.03;;;10.22;52.95
40490;BME280;26196;52.302;10.572;2023-03-12T19:12:14;99750.25;;;10.38;53.06
40490;BME280;26196;52.302;10.572;2023-03-12T19:16:51;99745.88;;;10.39;53.21
40490;BME280;26196;52.302;10.572;2023-03-12T19:26:03;99744.03;;;10.41;53.41
40490;BME280;26196;52.302;10.572;2023-03-12T19:30:38;99741.31;;;10.44;52.99
40490;BME280;26196;52.302;10.572;2023-03-12T19:35:15;99733.34;;;10.47;52.97
40490;BME280;26196;52.302;10.572;2023-03-12T19:39:50;99735.91;;;10.48;53.15
40490;BME280;26196;52.302;10.572;2023-03-12T19:44:27;99740.28;;;10.48;53.28
40490;BME280;26196;52.302;10.572;2023-03-12T19:49:04;99749.69;;;10.52;52.89
40490;BME280;26196;52.302;10.572;2023-03-12T20:02:36;99732.09;;;10.56;53.32
40490;BME280;26196;52.302;10.572;2023-03-12T20:07:10;99732.91;;;10.58;53.28
40490;BME280;26196;52.302;10.572;2023-03-12T20:11:45;99732.00;;;10.59;53.43
40490;BME280;26196;52.302;10.572;2023-03-12T20:16:20;99730.97;;;10.63;53.46
40490;BME280;26196;52.302;10.572;2023-03-12T20:20:57;99727.31;;;10.67;52.96
40490;BME280;26196;52.302;10.572;2023-03-12T20:30:12;99724.69;;;10.67;53.28
40490;BME280;26196;52.302;10.572;2023-03-12T20:34:49;99725.50;;;10.69;53.21
40490;BME280;26196;52.302;10.572;2023-03-12T20:44:01;99725.28;;;10.73;53.60
40490;BME280;26196;52.302;10.572;2023-03-12T20:48:38;99719.22;;;10.73;53.61
40490;BME280;26196;52.302;10.572;2023-03-12T20:52:38;99724.31;;;10.76;53.38
40490;BME280;26196;52.302;10.572;2023-03-12T20:57:13;99721.66;;;10.78;53.55
40490;BME280;26196;52.302;10.572;2023-03-12T21:01:50;99722.38;;;10.81;53.69
40490;BME280;26196;52.302;10.572;2023-03-12T21:10:28;99743.31;;;10.81;53.65
40490;BME280;26196;52.302;10.572;2023-03-12T21:15:02;99744.38;;;10.77;53.91
40490;BME280;26196;52.302;10.572;2023-03-12T21:19:37;99759.94;;;10.80;53.77
40490;BME280;26196;52.302;10.572;2023-03-12T21:23:37;99745.13;;;10.79;53.99
40490;BME280;26196;52.302;10.572;2023-03-12T21:28:15;99731.94;;;10.82;53.93
40490;BME280;26196;52.302;10.572;2023-03-12T21:32:15;99726.69;;;10.82;53.82
40490;BME280;26196;52.302;10.572;2023-03-12T21:36:15;99726.81;;;10.79;53.69
40490;BME280;26196;52.302;10.572;2023-03-12T21:40:53;99726.56;;;10.85;53.62
40490;BME280;26196;52.302;10.572;2023-03-12T21:44:56;99727.59;;;10.81;54.01
40490;BME280;26196;52.302;10.572;2023-03-12T21:49:31;99722.22;;;10.84;54.09
40490;BME280;26196;52.302;10.572;2023-03-12T21:53:33;99730.16;;;10.83;54.06
40490;BME280;26196;52.302;10.572;2023-03-12T21:58:08;99721.38;;;10.84;53.87
40490;BME280;26196;52.302;10.572;2023-03-12T22:02:14;99719.56;;;10.86;53.96
40490;BME280;26196;52.302;10.572;2023-03-12T22:06:15;99713.41;;;10.87;54.26
40490;BME280;26196;52.302;10.572;2023-03-12T22:10:15;99695.94;;;10.87;54.00
40490;BME280;26196;52.302;10.572;2023-03-12T22:14:16;99687.97;;;10.90;53.95
40490;BME280;26196;52.302;10.572;2023-03-12T22:18:16;99688.84;;;10.89;54.16
40490;BME280;26196;52.302;10.572;2023-03-12T22:22:54;99699.28;;;10.91;54.03
40490;BME280;26196;52.302;10.572;2023-03-12T22:26:54;99685.25;;;10.92;53.91
40490;BME280;26196;52.302;10.572;2023-03-12T22:31:03;99683.53;;;10.92;54.30
40490;BME280;26196;52.302;10.572;2023-03-12T22:35:04;99678.28;;;10.92;54.32
40490;BME280;26196;52.302;10.572;2023-03-12T22:39:04;99678.28;;;10.92;53.87
40490;BME280;26196;52.302;10.572;2023-03-12T22:43:05;99679.19;;;10.91;53.99
40490;BME280;26196;52.302;10.572;2023-03-12T22:47:06;99678.28;;;10.92;54.18
40490;BME280;26196;52.302;10.572;2023-03-12T22:51:06;99667.06;;;10.89;54.47
40490;BME280;26196;52.302;10.572;2023-03-12T22:59:41;99660.63;;;10.98;54.03
40490;BME280;26196;52.302;10.572;2023-03-12T23:03:43;99652.81;;;10.96;53.90
40490;BME280;26196;52.302;10.572;2023-03-12T23:07:44;99639.00;;;10.92;54.05
40490;BME280;26196;52.302;10.572;2023-03-12T23:11:44;99639.66;;;10.98;54.29
40490;BME280;26196;52.302;10.572;2023-03-12T23:15:44;99631.88;;;10.96;54.12
40490;BME280;26196;52.302;10.572;2023-03-12T23:19:45;99620.41;;;10.99;54.08
40490;BME280;26196;52.302;10.572;2023-03-12T23:24:19;99629.06;;;11.01;54.23
40490;BME280;26196;52.302;10.572;2023-03-12T23:28:21;99619.47;;;11.00;53.82
40490;BME280;26196;52.302;10.572;2023-03-12T23:32:56;99618.44;;;11.04;53.95
40490;BME280;26196;52.302;10.572;2023-03-12T23:36:56;99611.63;;;11.00;54.15
40490;BME280;26196;52.302;10.572;2023-03-12T23:41:23;99607.13;;;11.03;54.03
40490;BME280;26196;52.302;10.572;2023-03-12T23:45:23;99607.13;;;11.03;53.96
40490;BME280;26196;52.302;10.572;2023-03-12T23:49:24;99603.66;;;11.03;54.12
40490;BME280;26196;52.302;10.572;2023-03-12T23:53:59;99594.78;;;11.05;54.13
40490;BME280;26196;52.302;10.572;2023-03-12T23:58:00;99593.06;;;11.06;54.11
